Emerald Leader — C6WP4 — position and weather

sailwx.info

Track history (hours):
 
Tides and Currents Weather Stations Pressure Air Temp Water Temp Dewpoint Dewpoint Depression Visibility Wind Speed Wind Dir Waves Ship Positions

Emerald Leader

Last reported at 2017-Apr-28 23:28 UTC. Time now 2017-Apr-28 23:34 UTC.
Position N 51°19' E 003°13'.

Length 176 m; draft 8.6 m.

Type: Cargo ship. MMSI: 308688000.

Date/timePositionNaut miles runAvg speedWind from/ knotsBaromVisibWave heightAir tempDewpointWater temp
2017-Apr-28 23:28N 51°19' E 003°13'0 0.0
2017-Apr-28 22:58N 51°19' E 003°13'0 0.0
2017-Apr-28 22:28N 51°19' E 003°13'0 0.0
2017-Apr-28 21:58N 51°19' E 003°13'0 0.0
2017-Apr-28 21:28N 51°19' E 003°13'0 0.0
2017-Apr-28 20:55N 51°19' E 003°13'0 0.0
2017-Apr-28 20:28N 51°19' E 003°13'0 0.0
2017-Apr-28 19:55N 51°19' E 003°13'0 0.0
2017-Apr-28 19:28N 51°19' E 003°13'0 0.0
2017-Apr-28 18:58N 51°19' E 003°13'0 0.0
2017-Apr-28 18:28N 51°19' E 003°13'0 0.0
2017-Apr-28 17:58N 51°19' E 003°13'0 0.0
2017-Apr-28 17:28N 51°19' E 003°13'0 0.0
2017-Apr-28 16:58N 51°19' E 003°13'0 0.0
2017-Apr-28 16:28N 51°19' E 003°13'0 0.0
2017-Apr-28 15:58N 51°19' E 003°13'0 0.0
2017-Apr-28 15:28N 51°19' E 003°13'0 0.1
2017-Apr-28 15:01N 51°19' E 003°13'1 1.0
2017-Apr-28 14:00N 51°18' E 003°14'0 0.0
2017-Apr-28 13:30N 51°18' E 003°14'0 0.0
2017-Apr-28 13:00N 51°18' E 003°14'0 0.0
2017-Apr-28 12:30N 51°18' E 003°14'0 0.0
2017-Apr-28 12:00N 51°18' E 003°14'0 0.0
2017-Apr-28 11:30N 51°18' E 003°14'0 0.0
2017-Apr-28 11:00N 51°18' E 003°14'0 0.0
2017-Apr-28 10:30N 51°18' E 003°14'0 0.0
2017-Apr-28 10:00N 51°18' E 003°14'0 0.0
2017-Apr-28 09:30N 51°18' E 003°14'0 0.0
2017-Apr-28 09:00N 51°18' E 003°14'0 0.0
2017-Apr-28 08:30N 51°18' E 003°14'0 0.0
2017-Apr-28 08:00N 51°18' E 003°14'0 0.0
2017-Apr-28 07:30N 51°18' E 003°14'0 0.0
2017-Apr-28 07:00N 51°18' E 003°14'0 0.0
2017-Apr-28 06:30N 51°18' E 003°14'0 0.0
2017-Apr-28 06:00N 51°18' E 003°14'0 0.0
2017-Apr-28 05:30N 51°18' E 003°14'0 0.0
2017-Apr-28 05:00N 51°18' E 003°14'0 0.0
2017-Apr-28 04:30N 51°18' E 003°14'0 0.0
2017-Apr-28 04:00N 51°18' E 003°14'0 0.0
2017-Apr-28 03:30N 51°18' E 003°14'0 0.0
2017-Apr-28 02:57N 51°18' E 003°14'0 0.0
2017-Apr-28 02:30N 51°18' E 003°14'0 0.0
2017-Apr-28 02:00N 51°18' E 003°14'0 0.0
2017-Apr-28 01:30N 51°18' E 003°14'0 0.0
2017-Apr-28 01:00N 51°18' E 003°14'0 0.0
2017-Apr-28 00:30N 51°18' E 003°14'0 0.0
2017-Apr-28 00:00N 51°18' E 003°14'0 0.0
2017-Apr-27 23:30N 51°18' E 003°14'0 0.0
2017-Apr-27 23:00N 51°18' E 003°14'0 0.0
2017-Apr-27 22:30N 51°18' E 003°14'0 0.0
2017-Apr-27 22:00N 51°18' E 003°14'0 0.7
2017-Apr-27 21:30N 51°18' E 003°14'2 3.4
2017-Apr-27 20:59N 51°20' E 003°13'0 0.0
2017-Apr-27 20:28N 51°20' E 003°13'0 0.2
2017-Apr-27 20:00N 51°20' E 003°13'2 3.2
2017-Apr-27 19:30N 51°22' E 003°12'3 6.5
2017-Apr-27 19:00N 51°24' E 003°08'4 7.1
2017-Apr-27 18:30N 51°25' E 003°02'713.3
2017-Apr-27 18:01N 51°25' E 002°52'612.7
2017-Apr-27 17:30N 51°25' E 002°42'714.8
2017-Apr-27 17:00N 51°32' E 002°41'16 5.1
2017-Apr-27 13:54N 51°45' E 002°56'3 4.8
2017-Apr-27 13:22N 51°44' E 002°60'75 8.8
2017-Apr-27 04:54N 52°52' E 003°50'2113.4
2017-Apr-27 03:22N 53°06' E 004°15'13513.2
2017-Apr-26 17:11N 53°53' E 007°47'411.6
2017-Apr-26 16:50N 53°52' E 007°54'515.3
2017-Apr-26 16:30N 53°51' E 008°02'917.8
2017-Apr-26 16:00N 53°45' E 008°13'918.4
2017-Apr-26 15:30N 53°39' E 008°25'612.5
2017-Apr-26 15:00N 53°34' E 008°32'0 0.7
2017-Apr-26 14:29N 53°34' E 008°33'0 0.5
2017-Apr-26 13:29N 53°35' E 008°34'0 0.0
2017-Apr-26 12:59N 53°35' E 008°34'0 0.0
2017-Apr-26 12:29N 53°35' E 008°34'0 0.0
2017-Apr-26 11:59N 53°35' E 008°34'0 0.0
2017-Apr-26 11:29N 53°35' E 008°34'0 0.0
2017-Apr-26 10:53N 53°35' E 008°34'0 0.0
2017-Apr-26 10:20N 53°35' E 008°34'0 0.0
2017-Apr-26 09:56N 53°35' E 008°34'0 0.0
2017-Apr-26 09:26N 53°35' E 008°34'0 0.0
2017-Apr-26 08:59N 53°35' E 008°34'0 0.0
2017-Apr-26 08:29N 53°35' E 008°34'0 0.0
2017-Apr-26 07:53N 53°35' E 008°34'0 0.0
2017-Apr-26 07:26N 53°35' E 008°34'0 0.0
2017-Apr-26 06:59N 53°35' E 008°34'0 0.0
2017-Apr-26 06:29N 53°35' E 008°34'0 0.0
2017-Apr-26 05:59N 53°35' E 008°34'0 0.0
2017-Apr-26 05:29N 53°35' E 008°34'0 0.0
2017-Apr-26 04:59N 53°35' E 008°34'0 0.0
2017-Apr-26 04:29N 53°35' E 008°34'0 0.0
2017-Apr-26 03:53N 53°35' E 008°34'0 0.0
2017-Apr-26 03:29N 53°35' E 008°34'0 0.0
2017-Apr-26 02:53N 53°35' E 008°34'0 0.0
2017-Apr-26 02:29N 53°35' E 008°34'0 0.0
2017-Apr-26 01:56N 53°35' E 008°34'0 0.0
2017-Apr-26 01:29N 53°35' E 008°34'0 0.0
2017-Apr-26 00:59N 53°35' E 008°34'0 0.0
2017-Apr-26 00:29N 53°35' E 008°34'0 0.0
2017-Apr-25 23:59N 53°35' E 008°34'0 0.0
2017-Apr-25 23:29N 53°35' E 008°34'0 0.0
2017-Apr-25 22:59N 53°35' E 008°34'0 0.0
2017-Apr-25 22:29N 53°35' E 008°34'0 0.0
2017-Apr-25 21:59N 53°35' E 008°34'0 0.0
2017-Apr-25 21:29N 53°35' E 008°34'0 0.0
2017-Apr-25 20:56N 53°35' E 008°34'0 0.0
2017-Apr-25 20:20N 53°35' E 008°34'0 0.0
2017-Apr-25 19:59N 53°35' E 008°34'0 0.0
2017-Apr-25 19:29N 53°35' E 008°34'0 0.0
2017-Apr-25 18:59N 53°35' E 008°34'0 0.0
2017-Apr-25 18:26N 53°35' E 008°34'0 0.0
2017-Apr-25 17:59N 53°35' E 008°34'0 0.0
2017-Apr-25 17:29N 53°35' E 008°34'0 0.0
2017-Apr-25 16:59N 53°35' E 008°34'0 0.0
2017-Apr-25 16:29N 53°35' E 008°34'0 0.0
2017-Apr-25 15:59N 53°35' E 008°34'0 0.0
2017-Apr-25 15:29N 53°35' E 008°34'0 0.0
2017-Apr-25 14:59N 53°35' E 008°34'0 0.0
2017-Apr-25 14:29N 53°35' E 008°34'0 0.0
2017-Apr-25 13:29N 53°35' E 008°34'0 0.0
2017-Apr-25 12:59N 53°35' E 008°34'0 0.0
2017-Apr-25 12:23N 53°35' E 008°34'0 0.0
2017-Apr-25 11:59N 53°35' E 008°34'0 0.0
2017-Apr-25 11:29N 53°35' E 008°34'0 0.0
2017-Apr-25 10:59N 53°35' E 008°34'0 0.0
2017-Apr-25 10:29N 53°35' E 008°34'0 0.0
2017-Apr-25 09:56N 53°35' E 008°34'0 0.0
2017-Apr-25 09:29N 53°35' E 008°34'0 0.0
2017-Apr-25 08:59N 53°35' E 008°34'0 0.0
2017-Apr-25 08:29N 53°35' E 008°34'0 0.0
2017-Apr-25 07:53N 53°35' E 008°34'0 0.0
2017-Apr-25 07:29N 53°35' E 008°34'0 0.0
2017-Apr-25 06:59N 53°35' E 008°34'0 0.8
2017-Apr-25 06:28N 53°34' E 008°33'0 0.2
2017-Apr-25 06:00N 53°34' E 008°33'2 3.6
2017-Apr-25 05:30N 53°35' E 008°31'612.3
2017-Apr-25 05:00N 53°40' E 008°23'714.5
2017-Apr-25 04:30N 53°44' E 008°14'714.7
2017-Apr-25 04:00N 53°50' E 008°05'815.4
2017-Apr-25 03:30N 53°52' E 007°53'612.0
2017-Apr-25 03:00N 53°53' E 007°43'3 2.4
2017-Apr-25 01:49N 53°52' E 007°39'2 5.6
2017-Apr-25 01:30N 53°53' E 007°41'611.9
2017-Apr-25 01:00N 53°52' E 007°51'3 6.0
2017-Apr-25 00:30N 53°53' E 007°46'5 4.1
2017-Apr-24 23:19N 53°51' E 007°38'99 6.8
2017-Apr-24 08:40N 53°28' E 004°56'2310.1
2017-Apr-24 06:25N 53°11' E 004°30'614.4
2017-Apr-24 05:58N 53°05' E 004°25'714.5
2017-Apr-24 05:30N 52°59' E 004°20'714.7
2017-Apr-24 05:00N 52°52' E 004°15'714.9
2017-Apr-24 04:30N 52°46' E 004°08'715.0
2017-Apr-24 04:00N 52°41' E 003°60'815.3
2017-Apr-24 03:30N 52°35' E 003°51'8016.2
2017-Apr-23 22:33N 51°36' E 002°23'616.5
2017-Apr-23 22:13N 51°32' E 002°17'316.2
2017-Apr-23 22:00N 51°29' E 002°15'816.2
2017-Apr-23 21:30N 51°22' E 002°10'815.9
2017-Apr-23 21:00N 51°14' E 002°06'815.8
2017-Apr-23 20:30N 51°10' E 001°54'815.5
2017-Apr-23 20:00N 51°06' E 001°45'815.3
2017-Apr-23 19:30N 51°01' E 001°36'714.5
2017-Apr-23 19:00N 50°55' E 001°28'1014.0
2017-Apr-23 18:17N 50°46' E 001°23'4813.6
2017-Apr-23 14:45N 50°21' E 000°18'1013.8
2017-Apr-23 14:00N 50°19' E 000°02'713.7
2017-Apr-23 13:30N 50°17' W 000°09'713.4
2017-Apr-23 13:00N 50°15' W 000°19'713.1
2017-Apr-23 12:26N 50°13' W 000°30'812.9
2017-Apr-23 11:51N 50°11' W 000°41'412.7
2017-Apr-23 11:30N 50°10' W 000°48'612.6
2017-Apr-23 11:00N 50°09' W 000°57'1913.0
2017-Apr-23 09:34N 50°04' W 001°26'4915.2
2017-Apr-23 06:21N 49°53' W 002°40'616.0
2017-Apr-23 06:01N 49°51' W 002°48'1416.1
2017-Apr-23 05:07N 49°45' W 003°08'216.0
2017-Apr-23 05:01N 49°45' W 003°11'816.0
2017-Apr-23 04:31N 49°41' W 003°21'2115.9
2017-Apr-23 03:10N 49°29' W 003°49'315.9
2017-Apr-23 03:00N 49°28' W 003°53'3615.7
2017-Apr-23 00:43N 49°09' W 004°40'415.4
2017-Apr-23 00:26N 49°07' W 004°45'715.4
2017-Apr-23 00:00N 49°03' W 004°54'815.3
2017-Apr-22 23:30N 48°60' W 005°04'815.2
2017-Apr-22 23:00N 48°56' W 005°14'715.0
2017-Apr-22 22:30N 48°52' W 005°23'714.7
2017-Apr-22 22:00N 48°48' W 005°33'714.3
2017-Apr-22 21:30N 48°42' W 005°40'2214.4
2017-Apr-22 19:59N 48°23' W 005°56'4613.7
2017-Apr-22 16:38N 47°42' W 006°26'1113.6
2017-Apr-22 15:48N 47°32' W 006°34'8314.4
2017-Apr-22 10:03N 46°19' W 007°31'114.5
2017-Apr-22 10:00N 46°18' W 007°31'714.6
2017-Apr-22 09:30N 46°12' W 007°36'714.4
2017-Apr-22 09:00N 46°05' W 007°41'714.4
2017-Apr-22 08:30N 45°59' W 007°46'714.2
2017-Apr-22 08:01N 45°53' W 007°51'714.2
2017-Apr-22 07:30N 45°46' W 007°55'714.0
2017-Apr-22 07:00N 45°40' W 007°60'376 9.3
2017-Apr-20 14:34N 39°34' W 009°52'114.7
2017-Apr-20 14:28N 39°32' W 009°52'1414.6
2017-Apr-20 13:30N 39°18' W 009°52'715.0
2017-Apr-20 13:01N 39°11' W 009°52'714.7
2017-Apr-20 12:31N 39°03' W 009°52'714.9
2017-Apr-20 12:00N 38°56' W 009°52'815.2
2017-Apr-20 11:30N 38°48' W 009°51'815.8
2017-Apr-20 11:01N 38°40' W 009°50'816.1
2017-Apr-20 10:30N 38°33' W 009°48'816.4
2017-Apr-20 10:01N 38°25' W 009°46'816.4
2017-Apr-20 09:30N 38°16' W 009°43'816.4
2017-Apr-20 09:00N 38°08' W 009°41'816.0
2017-Apr-20 08:30N 38°01' W 009°39'816.4
2017-Apr-20 08:00N 37°53' W 009°37'816.4
2017-Apr-20 07:30N 37°45' W 009°35'7314.5
2017-Apr-20 02:30N 36°40' W 008°53'1515.4
2017-Apr-20 01:30N 36°35' W 008°35'3415.1
2017-Apr-19 23:13N 36°24' W 007°54'514.8
2017-Apr-19 22:54N 36°22' W 007°49'715.3
2017-Apr-19 22:28N 36°20' W 007°41'9815.6
2017-Apr-19 16:10N 35°58' W 005°42'316.3
2017-Apr-19 16:01N 35°58' W 005°39'815.8
2017-Apr-19 15:30N 35°60' W 005°30'815.3
2017-Apr-19 15:00N 36°02' W 005°20'815.8
2017-Apr-19 14:30N 36°04' W 005°11'21215.8
2017-Apr-19 01:03N 36°37' W 000°51'215.7
2017-Apr-19 00:55N 36°37' W 000°48'615.7
2017-Apr-19 00:30N 36°38' W 000°40'  
Track history (hours):
 
Tides and Currents Weather Stations Pressure Air Temp Water Temp Dewpoint Dewpoint Depression Visibility Wind Speed Wind Dir Waves Ship Positions

Emerald Leader

Last reported at 2017-Apr-28 23:28 UTC. Time now 2017-Apr-28 23:34 UTC.
Position N 51°19' E 003°13'.

Length 176 m; draft 8.6 m.

Type: Cargo ship. MMSI: 308688000.

Date/timePositionNaut miles runAvg speedWind from/ knotsBaromVisibWave heightAir tempDewpointWater temp
2017-Apr-28 23:28N 51°19' E 003°13'0 0.0
2017-Apr-28 22:58N 51°19' E 003°13'0 0.0
2017-Apr-28 22:28N 51°19' E 003°13'0 0.0
2017-Apr-28 21:58N 51°19' E 003°13'0 0.0
2017-Apr-28 21:28N 51°19' E 003°13'0 0.0
2017-Apr-28 20:55N 51°19' E 003°13'0 0.0
2017-Apr-28 20:28N 51°19' E 003°13'0 0.0
2017-Apr-28 19:55N 51°19' E 003°13'0 0.0
2017-Apr-28 19:28N 51°19' E 003°13'0 0.0
2017-Apr-28 18:58N 51°19' E 003°13'0 0.0
2017-Apr-28 18:28N 51°19' E 003°13'0 0.0
2017-Apr-28 17:58N 51°19' E 003°13'0 0.0
2017-Apr-28 17:28N 51°19' E 003°13'0 0.0
2017-Apr-28 16:58N 51°19' E 003°13'0 0.0
2017-Apr-28 16:28N 51°19' E 003°13'0 0.0
2017-Apr-28 15:58N 51°19' E 003°13'0 0.0
2017-Apr-28 15:28N 51°19' E 003°13'0 0.1
2017-Apr-28 15:01N 51°19' E 003°13'1 1.0
2017-Apr-28 14:00N 51°18' E 003°14'0 0.0
2017-Apr-28 13:30N 51°18' E 003°14'0 0.0
2017-Apr-28 13:00N 51°18' E 003°14'0 0.0
2017-Apr-28 12:30N 51°18' E 003°14'0 0.0
2017-Apr-28 12:00N 51°18' E 003°14'0 0.0
2017-Apr-28 11:30N 51°18' E 003°14'0 0.0
2017-Apr-28 11:00N 51°18' E 003°14'0 0.0
2017-Apr-28 10:30N 51°18' E 003°14'0 0.0
2017-Apr-28 10:00N 51°18' E 003°14'0 0.0
2017-Apr-28 09:30N 51°18' E 003°14'0 0.0
2017-Apr-28 09:00N 51°18' E 003°14'0 0.0
2017-Apr-28 08:30N 51°18' E 003°14'0 0.0
2017-Apr-28 08:00N 51°18' E 003°14'0 0.0
2017-Apr-28 07:30N 51°18' E 003°14'0 0.0
2017-Apr-28 07:00N 51°18' E 003°14'0 0.0
2017-Apr-28 06:30N 51°18' E 003°14'0 0.0
2017-Apr-28 06:00N 51°18' E 003°14'0 0.0
2017-Apr-28 05:30N 51°18' E 003°14'0 0.0
2017-Apr-28 05:00N 51°18' E 003°14'0 0.0
2017-Apr-28 04:30N 51°18' E 003°14'0 0.0
2017-Apr-28 04:00N 51°18' E 003°14'0 0.0
2017-Apr-28 03:30N 51°18' E 003°14'0 0.0
2017-Apr-28 02:57N 51°18' E 003°14'0 0.0
2017-Apr-28 02:30N 51°18' E 003°14'0 0.0
2017-Apr-28 02:00N 51°18' E 003°14'0 0.0
2017-Apr-28 01:30N 51°18' E 003°14'0 0.0
2017-Apr-28 01:00N 51°18' E 003°14'0 0.0
2017-Apr-28 00:30N 51°18' E 003°14'0 0.0
2017-Apr-28 00:00N 51°18' E 003°14'0 0.0
2017-Apr-27 23:30N 51°18' E 003°14'0 0.0
2017-Apr-27 23:00N 51°18' E 003°14'0 0.0
2017-Apr-27 22:30N 51°18' E 003°14'0 0.0
2017-Apr-27 22:00N 51°18' E 003°14'0 0.7
2017-Apr-27 21:30N 51°18' E 003°14'2 3.4
2017-Apr-27 20:59N 51°20' E 003°13'0 0.0
2017-Apr-27 20:28N 51°20' E 003°13'0 0.2
2017-Apr-27 20:00N 51°20' E 003°13'2 3.2
2017-Apr-27 19:30N 51°22' E 003°12'3 6.5
2017-Apr-27 19:00N 51°24' E 003°08'4 7.1
2017-Apr-27 18:30N 51°25' E 003°02'713.3
2017-Apr-27 18:01N 51°25' E 002°52'612.7
2017-Apr-27 17:30N 51°25' E 002°42'714.8
2017-Apr-27 17:00N 51°32' E 002°41'16 5.1
2017-Apr-27 13:54N 51°45' E 002°56'3 4.8
2017-Apr-27 13:22N 51°44' E 002°60'75 8.8
2017-Apr-27 04:54N 52°52' E 003°50'2113.4
2017-Apr-27 03:22N 53°06' E 004°15'13513.2
2017-Apr-26 17:11N 53°53' E 007°47'411.6
2017-Apr-26 16:50N 53°52' E 007°54'515.3
2017-Apr-26 16:30N 53°51' E 008°02'917.8
2017-Apr-26 16:00N 53°45' E 008°13'918.4
2017-Apr-26 15:30N 53°39' E 008°25'612.5
2017-Apr-26 15:00N 53°34' E 008°32'0 0.7
2017-Apr-26 14:29N 53°34' E 008°33'0 0.5
2017-Apr-26 13:29N 53°35' E 008°34'0 0.0
2017-Apr-26 12:59N 53°35' E 008°34'0 0.0
2017-Apr-26 12:29N 53°35' E 008°34'0 0.0
2017-Apr-26 11:59N 53°35' E 008°34'0 0.0
2017-Apr-26 11:29N 53°35' E 008°34'0 0.0
2017-Apr-26 10:53N 53°35' E 008°34'0 0.0
2017-Apr-26 10:20N 53°35' E 008°34'0 0.0
2017-Apr-26 09:56N 53°35' E 008°34'0 0.0
2017-Apr-26 09:26N 53°35' E 008°34'0 0.0
2017-Apr-26 08:59N 53°35' E 008°34'0 0.0
2017-Apr-26 08:29N 53°35' E 008°34'0 0.0
2017-Apr-26 07:53N 53°35' E 008°34'0 0.0
2017-Apr-26 07:26N 53°35' E 008°34'0 0.0
2017-Apr-26 06:59N 53°35' E 008°34'0 0.0
2017-Apr-26 06:29N 53°35' E 008°34'0 0.0
2017-Apr-26 05:59N 53°35' E 008°34'0 0.0
2017-Apr-26 05:29N 53°35' E 008°34'0 0.0
2017-Apr-26 04:59N 53°35' E 008°34'0 0.0
2017-Apr-26 04:29N 53°35' E 008°34'0 0.0
2017-Apr-26 03:53N 53°35' E 008°34'0 0.0
2017-Apr-26 03:29N 53°35' E 008°34'0 0.0
2017-Apr-26 02:53N 53°35' E 008°34'0 0.0
2017-Apr-26 02:29N 53°35' E 008°34'0 0.0
2017-Apr-26 01:56N 53°35' E 008°34'0 0.0
2017-Apr-26 01:29N 53°35' E 008°34'0 0.0
2017-Apr-26 00:59N 53°35' E 008°34'0 0.0
2017-Apr-26 00:29N 53°35' E 008°34'0 0.0
2017-Apr-25 23:59N 53°35' E 008°34'0 0.0
2017-Apr-25 23:29N 53°35' E 008°34'0 0.0
2017-Apr-25 22:59N 53°35' E 008°34'0 0.0
2017-Apr-25 22:29N 53°35' E 008°34'0 0.0
2017-Apr-25 21:59N 53°35' E 008°34'0 0.0
2017-Apr-25 21:29N 53°35' E 008°34'0 0.0
2017-Apr-25 20:56N 53°35' E 008°34'0 0.0
2017-Apr-25 20:20N 53°35' E 008°34'0 0.0
2017-Apr-25 19:59N 53°35' E 008°34'0 0.0
2017-Apr-25 19:29N 53°35' E 008°34'0 0.0
2017-Apr-25 18:59N 53°35' E 008°34'0 0.0
2017-Apr-25 18:26N 53°35' E 008°34'0 0.0
2017-Apr-25 17:59N 53°35' E 008°34'0 0.0
2017-Apr-25 17:29N 53°35' E 008°34'0 0.0
2017-Apr-25 16:59N 53°35' E 008°34'0 0.0
2017-Apr-25 16:29N 53°35' E 008°34'0 0.0
2017-Apr-25 15:59N 53°35' E 008°34'0 0.0
2017-Apr-25 15:29N 53°35' E 008°34'0 0.0
2017-Apr-25 14:59N 53°35' E 008°34'0 0.0
2017-Apr-25 14:29N 53°35' E 008°34'0 0.0
2017-Apr-25 13:29N 53°35' E 008°34'0 0.0
2017-Apr-25 12:59N 53°35' E 008°34'0 0.0
2017-Apr-25 12:23N 53°35' E 008°34'0 0.0
2017-Apr-25 11:59N 53°35' E 008°34'0 0.0
2017-Apr-25 11:29N 53°35' E 008°34'0 0.0
2017-Apr-25 10:59N 53°35' E 008°34'0 0.0
2017-Apr-25 10:29N 53°35' E 008°34'0 0.0
2017-Apr-25 09:56N 53°35' E 008°34'0 0.0
2017-Apr-25 09:29N 53°35' E 008°34'0 0.0
2017-Apr-25 08:59N 53°35' E 008°34'0 0.0
2017-Apr-25 08:29N 53°35' E 008°34'0 0.0
2017-Apr-25 07:53N 53°35' E 008°34'0 0.0
2017-Apr-25 07:29N 53°35' E 008°34'0 0.0
2017-Apr-25 06:59N 53°35' E 008°34'0 0.8
2017-Apr-25 06:28N 53°34' E 008°33'0 0.2
2017-Apr-25 06:00N 53°34' E 008°33'2 3.6
2017-Apr-25 05:30N 53°35' E 008°31'612.3
2017-Apr-25 05:00N 53°40' E 008°23'714.5
2017-Apr-25 04:30N 53°44' E 008°14'714.7
2017-Apr-25 04:00N 53°50' E 008°05'815.4
2017-Apr-25 03:30N 53°52' E 007°53'612.0
2017-Apr-25 03:00N 53°53' E 007°43'3 2.4
2017-Apr-25 01:49N 53°52' E 007°39'2 5.6
2017-Apr-25 01:30N 53°53' E 007°41'611.9
2017-Apr-25 01:00N 53°52' E 007°51'3 6.0
2017-Apr-25 00:30N 53°53' E 007°46'5 4.1
2017-Apr-24 23:19N 53°51' E 007°38'99 6.8
2017-Apr-24 08:40N 53°28' E 004°56'2310.1
2017-Apr-24 06:25N 53°11' E 004°30'614.4
2017-Apr-24 05:58N 53°05' E 004°25'714.5
2017-Apr-24 05:30N 52°59' E 004°20'714.7
2017-Apr-24 05:00N 52°52' E 004°15'714.9
2017-Apr-24 04:30N 52°46' E 004°08'715.0
2017-Apr-24 04:00N 52°41' E 003°60'815.3
2017-Apr-24 03:30N 52°35' E 003°51'8016.2
2017-Apr-23 22:33N 51°36' E 002°23'616.5
2017-Apr-23 22:13N 51°32' E 002°17'316.2
2017-Apr-23 22:00N 51°29' E 002°15'816.2
2017-Apr-23 21:30N 51°22' E 002°10'815.9
2017-Apr-23 21:00N 51°14' E 002°06'815.8
2017-Apr-23 20:30N 51°10' E 001°54'815.5
2017-Apr-23 20:00N 51°06' E 001°45'815.3
2017-Apr-23 19:30N 51°01' E 001°36'714.5
2017-Apr-23 19:00N 50°55' E 001°28'1014.0
2017-Apr-23 18:17N 50°46' E 001°23'4813.6
2017-Apr-23 14:45N 50°21' E 000°18'1013.8
2017-Apr-23 14:00N 50°19' E 000°02'713.7
2017-Apr-23 13:30N 50°17' W 000°09'713.4
2017-Apr-23 13:00N 50°15' W 000°19'713.1
2017-Apr-23 12:26N 50°13' W 000°30'812.9
2017-Apr-23 11:51N 50°11' W 000°41'412.7
2017-Apr-23 11:30N 50°10' W 000°48'612.6
2017-Apr-23 11:00N 50°09' W 000°57'1913.0
2017-Apr-23 09:34N 50°04' W 001°26'4915.2
2017-Apr-23 06:21N 49°53' W 002°40'616.0
2017-Apr-23 06:01N 49°51' W 002°48'1416.1
2017-Apr-23 05:07N 49°45' W 003°08'216.0
2017-Apr-23 05:01N 49°45' W 003°11'816.0
2017-Apr-23 04:31N 49°41' W 003°21'2115.9
2017-Apr-23 03:10N 49°29' W 003°49'315.9
2017-Apr-23 03:00N 49°28' W 003°53'3615.7
2017-Apr-23 00:43N 49°09' W 004°40'415.4
2017-Apr-23 00:26N 49°07' W 004°45'715.4
2017-Apr-23 00:00N 49°03' W 004°54'815.3
2017-Apr-22 23:30N 48°60' W 005°04'815.2
2017-Apr-22 23:00N 48°56' W 005°14'715.0
2017-Apr-22 22:30N 48°52' W 005°23'714.7
2017-Apr-22 22:00N 48°48' W 005°33'714.3
2017-Apr-22 21:30N 48°42' W 005°40'2214.4
2017-Apr-22 19:59N 48°23' W 005°56'4613.7
2017-Apr-22 16:38N 47°42' W 006°26'1113.6
2017-Apr-22 15:48N 47°32' W 006°34'8314.4
2017-Apr-22 10:03N 46°19' W 007°31'114.5
2017-Apr-22 10:00N 46°18' W 007°31'714.6
2017-Apr-22 09:30N 46°12' W 007°36'714.4
2017-Apr-22 09:00N 46°05' W 007°41'714.4
2017-Apr-22 08:30N 45°59' W 007°46'714.2
2017-Apr-22 08:01N 45°53' W 007°51'714.2
2017-Apr-22 07:30N 45°46' W 007°55'714.0
2017-Apr-22 07:00N 45°40' W 007°60'376 9.3
2017-Apr-20 14:34N 39°34' W 009°52'114.7
2017-Apr-20 14:28N 39°32' W 009°52'1414.6
2017-Apr-20 13:30N 39°18' W 009°52'715.0
2017-Apr-20 13:01N 39°11' W 009°52'714.7
2017-Apr-20 12:31N 39°03' W 009°52'714.9
2017-Apr-20 12:00N 38°56' W 009°52'815.2
2017-Apr-20 11:30N 38°48' W 009°51'815.8
2017-Apr-20 11:01N 38°40' W 009°50'816.1
2017-Apr-20 10:30N 38°33' W 009°48'816.4
2017-Apr-20 10:01N 38°25' W 009°46'816.4
2017-Apr-20 09:30N 38°16' W 009°43'816.4
2017-Apr-20 09:00N 38°08' W 009°41'816.0
2017-Apr-20 08:30N 38°01' W 009°39'816.4
2017-Apr-20 08:00N 37°53' W 009°37'816.4
2017-Apr-20 07:30N 37°45' W 009°35'7314.5
2017-Apr-20 02:30N 36°40' W 008°53'1515.4
2017-Apr-20 01:30N 36°35' W 008°35'3415.1
2017-Apr-19 23:13N 36°24' W 007°54'514.8
2017-Apr-19 22:54N 36°22' W 007°49'715.3
2017-Apr-19 22:28N 36°20' W 007°41'9815.6
2017-Apr-19 16:10N 35°58' W 005°42'316.3
2017-Apr-19 16:01N 35°58' W 005°39'815.8
2017-Apr-19 15:30N 35°60' W 005°30'815.3
2017-Apr-19 15:00N 36°02' W 005°20'815.8
2017-Apr-19 14:30N 36°04' W 005°11'21215.8
2017-Apr-19 01:03N 36°37' W 000°51'215.7
2017-Apr-19 00:55N 36°37' W 000°48'615.7
2017-Apr-19 00:30N 36°38' W 000°40'  

Dump ship's entire track history